sensor_id;sensor_type;location;lat;lon;timestamp;P1;durP1;ratioP1;P2;durP2;ratioP2
26594;SDS011;14238;49.496;8.154;2022-07-26T00:01:03;2.50;;;2.30;;
26594;SDS011;14238;49.496;8.154;2022-07-26T00:03:29;2.00;;;1.90;;
26594;SDS011;14238;49.496;8.154;2022-07-26T00:05:54;2.90;;;2.10;;
26594;SDS011;14238;49.496;8.154;2022-07-26T00:08:20;2.43;;;2.10;;
26594;SDS011;14238;49.496;8.154;2022-07-26T00:10:47;2.90;;;2.37;;
26594;SDS011;14238;49.496;8.154;2022-07-26T00:13:13;2.07;;;1.97;;
26594;SDS011;14238;49.496;8.154;2022-07-26T00:15:43;1.97;;;1.87;;
26594;SDS011;14238;49.496;8.154;2022-07-26T00:18:10;1.93;;;1.83;;
26594;SDS011;14238;49.496;8.154;2022-07-26T00:20:36;2.30;;;2.10;;
26594;SDS011;14238;49.496;8.154;2022-07-26T00:23:02;2.07;;;1.87;;
26594;SDS011;14238;49.496;8.154;2022-07-26T00:25:27;4.17;;;2.50;;
26594;SDS011;14238;49.496;8.154;2022-07-26T00:27:53;3.50;;;2.70;;
26594;SDS011;14238;49.496;8.154;2022-07-26T00:30:19;4.07;;;2.57;;
26594;SDS011;14238;49.496;8.154;2022-07-26T00:32:45;2.47;;;2.07;;
26594;SDS011;14238;49.496;8.154;2022-07-26T00:35:11;2.53;;;2.00;;
26594;SDS011;14238;49.496;8.154;2022-07-26T00:37:37;2.10;;;2.00;;
26594;SDS011;14238;49.496;8.154;2022-07-26T00:40:04;2.47;;;2.37;;
26594;SDS011;14238;49.496;8.154;2022-07-26T00:42:30;2.80;;;2.27;;
26594;SDS011;14238;49.496;8.154;2022-07-26T00:44:56;2.50;;;2.40;;
26594;SDS011;14238;49.496;8.154;2022-07-26T00:47:22;2.10;;;2.00;;
26594;SDS011;14238;49.496;8.154;2022-07-26T00:49:47;2.80;;;2.60;;
26594;SDS011;14238;49.496;8.154;2022-07-26T00:52:13;3.63;;;2.87;;
26594;SDS011;14238;49.496;8.154;2022-07-26T00:54:40;2.53;;;2.30;;
26594;SDS011;14238;49.496;8.154;2022-07-26T00:57:11;2.07;;;1.97;;
26594;SDS011;14238;49.496;8.154;2022-07-26T00:59:37;2.77;;;2.57;;
26594;SDS011;14238;49.496;8.154;2022-07-26T01:02:04;2.80;;;2.50;;
26594;SDS011;14238;49.496;8.154;2022-07-26T01:04:31;4.83;;;2.93;;
26594;SDS011;14238;49.496;8.154;2022-07-26T01:06:57;3.70;;;2.10;;
26594;SDS011;14238;49.496;8.154;2022-07-26T01:09:23;1.80;;;1.70;;
26594;SDS011;14238;49.496;8.154;2022-07-26T01:11:49;2.40;;;2.30;;
26594;SDS011;14238;49.496;8.154;2022-07-26T01:14:17;2.43;;;2.33;;
26594;SDS011;14238;49.496;8.154;2022-07-26T01:16:45;2.70;;;2.50;;
26594;SDS011;14238;49.496;8.154;2022-07-26T01:19:10;3.17;;;2.90;;
26594;SDS011;14238;49.496;8.154;2022-07-26T01:21:36;4.90;;;2.30;;
26594;SDS011;14238;49.496;8.154;2022-07-26T01:24:02;2.57;;;2.43;;
26594;SDS011;14238;49.496;8.154;2022-07-26T01:26:28;3.93;;;2.80;;
26594;SDS011;14238;49.496;8.154;2022-07-26T01:28:53;2.80;;;2.60;;
26594;SDS011;14238;49.496;8.154;2022-07-26T01:31:19;3.93;;;2.50;;
26594;SDS011;14238;49.496;8.154;2022-07-26T01:33:44;3.37;;;2.80;;
26594;SDS011;14238;49.496;8.154;2022-07-26T01:36:10;2.57;;;2.37;;
26594;SDS011;14238;49.496;8.154;2022-07-26T01:38:36;4.47;;;2.33;;
26594;SDS011;14238;49.496;8.154;2022-07-26T01:41:03;2.70;;;2.50;;
26594;SDS011;14238;49.496;8.154;2022-07-26T01:43:28;2.53;;;2.33;;
26594;SDS011;14238;49.496;8.154;2022-07-26T01:45:54;2.80;;;2.43;;
26594;SDS011;14238;49.496;8.154;2022-07-26T01:48:19;4.00;;;2.20;;
26594;SDS011;14238;49.496;8.154;2022-07-26T01:50:45;2.23;;;2.13;;
26594;SDS011;14238;49.496;8.154;2022-07-26T01:53:11;2.37;;;2.27;;
26594;SDS011;14238;49.496;8.154;2022-07-26T01:55:36;3.77;;;2.60;;
26594;SDS011;14238;49.496;8.154;2022-07-26T01:58:03;3.10;;;2.80;;
26594;SDS011;14238;49.496;8.154;2022-07-26T02:00:29;2.23;;;2.13;;
26594;SDS011;14238;49.496;8.154;2022-07-26T02:02:55;4.73;;;2.80;;
26594;SDS011;14238;49.496;8.154;2022-07-26T02:05:21;3.60;;;2.50;;
26594;SDS011;14238;49.496;8.154;2022-07-26T02:07:47;2.53;;;2.43;;
26594;SDS011;14238;49.496;8.154;2022-07-26T02:10:12;3.03;;;2.83;;
26594;SDS011;14238;49.496;8.154;2022-07-26T02:12:38;3.03;;;2.50;;
26594;SDS011;14238;49.496;8.154;2022-07-26T02:15:05;2.40;;;2.30;;
26594;SDS011;14238;49.496;8.154;2022-07-26T02:17:32;2.93;;;2.73;;
26594;SDS011;14238;49.496;8.154;2022-07-26T02:19:58;3.10;;;2.87;;
26594;SDS011;14238;49.496;8.154;2022-07-26T02:22:23;2.83;;;2.63;;
26594;SDS011;14238;49.496;8.154;2022-07-26T02:24:49;4.27;;;2.30;;
26594;SDS011;14238;49.496;8.154;2022-07-26T02:27:15;2.90;;;2.43;;
26594;SDS011;14238;49.496;8.154;2022-07-26T02:29:41;3.77;;;3.07;;
26594;SDS011;14238;49.496;8.154;2022-07-26T02:32:07;3.37;;;2.80;;
26594;SDS011;14238;49.496;8.154;2022-07-26T02:34:32;4.47;;;3.30;;
26594;SDS011;14238;49.496;8.154;2022-07-26T02:36:58;2.80;;;2.60;;
26594;SDS011;14238;49.496;8.154;2022-07-26T02:39:24;2.93;;;2.63;;
26594;SDS011;14238;49.496;8.154;2022-07-26T02:41:54;2.70;;;2.60;;
26594;SDS011;14238;49.496;8.154;2022-07-26T02:44:21;3.43;;;2.87;;
26594;SDS011;14238;49.496;8.154;2022-07-26T02:46:47;2.83;;;2.63;;
26594;SDS011;14238;49.496;8.154;2022-07-26T02:49:12;3.10;;;2.80;;
26594;SDS011;14238;49.496;8.154;2022-07-26T02:51:38;2.70;;;2.10;;
26594;SDS011;14238;49.496;8.154;2022-07-26T02:54:03;4.63;;;2.47;;
26594;SDS011;14238;49.496;8.154;2022-07-26T02:56:29;3.00;;;2.80;;
26594;SDS011;14238;49.496;8.154;2022-07-26T02:58:54;3.00;;;2.77;;
26594;SDS011;14238;49.496;8.154;2022-07-26T03:01:20;3.53;;;2.70;;
26594;SDS011;14238;49.496;8.154;2022-07-26T03:03:46;2.90;;;2.70;;
26594;SDS011;14238;49.496;8.154;2022-07-26T03:06:12;2.93;;;2.70;;
26594;SDS011;14238;49.496;8.154;2022-07-26T03:08:37;3.13;;;2.97;;
26594;SDS011;14238;49.496;8.154;2022-07-26T03:11:03;2.67;;;2.47;;
26594;SDS011;14238;49.496;8.154;2022-07-26T03:13:30;3.20;;;2.53;;
26594;SDS011;14238;49.496;8.154;2022-07-26T03:15:55;8.10;;;2.77;;
26594;SDS011;14238;49.496;8.154;2022-07-26T03:18:21;2.70;;;2.50;;
26594;SDS011;14238;49.496;8.154;2022-07-26T03:20:46;4.20;;;2.83;;
26594;SDS011;14238;49.496;8.154;2022-07-26T03:23:13;7.40;;;3.30;;
26594;SDS011;14238;49.496;8.154;2022-07-26T03:25:39;4.70;;;3.33;;
26594;SDS011;14238;49.496;8.154;2022-07-26T03:28:05;3.13;;;2.60;;
26594;SDS011;14238;49.496;8.154;2022-07-26T03:30:30;5.90;;;3.07;;
26594;SDS011;14238;49.496;8.154;2022-07-26T03:32:56;4.63;;;2.83;;
26594;SDS011;14238;49.496;8.154;2022-07-26T03:35:21;4.10;;;2.80;;
26594;SDS011;14238;49.496;8.154;2022-07-26T03:37:47;2.80;;;2.60;;
26594;SDS011;14238;49.496;8.154;2022-07-26T03:40:14;2.70;;;2.60;;
26594;SDS011;14238;49.496;8.154;2022-07-26T03:42:40;2.80;;;2.53;;
26594;SDS011;14238;49.496;8.154;2022-07-26T03:45:06;3.80;;;2.50;;
26594;SDS011;14238;49.496;8.154;2022-07-26T03:47:32;2.90;;;2.60;;
26594;SDS011;14238;49.496;8.154;2022-07-26T03:49:57;2.70;;;2.50;;
26594;SDS011;14238;49.496;8.154;2022-07-26T03:52:23;2.90;;;2.70;;
26594;SDS011;14238;49.496;8.154;2022-07-26T03:54:48;2.93;;;2.73;;
26594;SDS011;14238;49.496;8.154;2022-07-26T03:57:14;2.67;;;2.47;;
26594;SDS011;14238;49.496;8.154;2022-07-26T03:59:39;2.53;;;2.33;;
26594;SDS011;14238;49.496;8.154;2022-07-26T04:02:05;4.40;;;2.23;;
26594;SDS011;14238;49.496;8.154;2022-07-26T04:04:31;2.43;;;2.00;;
26594;SDS011;14238;49.496;8.154;2022-07-26T04:06:56;5.27;;;2.43;;
26594;SDS011;14238;49.496;8.154;2022-07-26T04:09:22;2.60;;;2.40;;
26594;SDS011;14238;49.496;8.154;2022-07-26T04:11:47;2.40;;;2.20;;
26594;SDS011;14238;49.496;8.154;2022-07-26T04:14:13;4.03;;;2.57;;
26594;SDS011;14238;49.496;8.154;2022-07-26T04:16:39;5.83;;;2.87;;
26594;SDS011;14238;49.496;8.154;2022-07-26T04:19:04;3.00;;;2.80;;
26594;SDS011;14238;49.496;8.154;2022-07-26T04:21:45;3.30;;;2.30;;
26594;SDS011;14238;49.496;8.154;2022-07-26T04:24:11;2.83;;;2.40;;
26594;SDS011;14238;49.496;8.154;2022-07-26T04:26:36;2.43;;;2.23;;
26594;SDS011;14238;49.496;8.154;2022-07-26T04:29:02;2.93;;;2.37;;
26594;SDS011;14238;49.496;8.154;2022-07-26T04:31:27;2.80;;;2.60;;
26594;SDS011;14238;49.496;8.154;2022-07-26T04:33:53;3.80;;;2.43;;
26594;SDS011;14238;49.496;8.154;2022-07-26T04:36:18;3.07;;;2.23;;
26594;SDS011;14238;49.496;8.154;2022-07-26T04:38:44;3.53;;;3.23;;
26594;SDS011;14238;49.496;8.154;2022-07-26T04:41:10;2.30;;;2.10;;
26594;SDS011;14238;49.496;8.154;2022-07-26T04:43:35;3.33;;;2.30;;
26594;SDS011;14238;49.496;8.154;2022-07-26T04:46:01;2.53;;;2.33;;
26594;SDS011;14238;49.496;8.154;2022-07-26T04:48:27;2.90;;;2.33;;
26594;SDS011;14238;49.496;8.154;2022-07-26T04:50:52;2.33;;;2.17;;
26594;SDS011;14238;49.496;8.154;2022-07-26T04:53:18;4.27;;;2.80;;
26594;SDS011;14238;49.496;8.154;2022-07-26T04:55:44;2.73;;;2.47;;
26594;SDS011;14238;49.496;8.154;2022-07-26T04:58:10;2.57;;;2.37;;
26594;SDS011;14238;49.496;8.154;2022-07-26T05:00:36;2.73;;;2.33;;
26594;SDS011;14238;49.496;8.154;2022-07-26T05:03:02;2.70;;;2.50;;
26594;SDS011;14238;49.496;8.154;2022-07-26T05:05:29;2.50;;;2.17;;
26594;SDS011;14238;49.496;8.154;2022-07-26T05:07:58;1.97;;;1.83;;
26594;SDS011;14238;49.496;8.154;2022-07-26T05:10:32;3.13;;;2.60;;
26594;SDS011;14238;49.496;8.154;2022-07-26T05:13:00;2.90;;;2.03;;
26594;SDS011;14238;49.496;8.154;2022-07-26T05:15:28;2.33;;;2.13;;
26594;SDS011;14238;49.496;8.154;2022-07-26T05:17:54;2.50;;;2.27;;
26594;SDS011;14238;49.496;8.154;2022-07-26T05:20:21;2.60;;;2.27;;
26594;SDS011;14238;49.496;8.154;2022-07-26T05:22:48;2.57;;;2.30;;
26594;SDS011;14238;49.496;8.154;2022-07-26T05:25:13;2.30;;;2.10;;
26594;SDS011;14238;49.496;8.154;2022-07-26T05:27:39;2.53;;;2.33;;
26594;SDS011;14238;49.496;8.154;2022-07-26T05:30:05;2.27;;;1.90;;
26594;SDS011;14238;49.496;8.154;2022-07-26T05:32:32;3.80;;;2.00;;
26594;SDS011;14238;49.496;8.154;2022-07-26T05:34:58;2.33;;;2.07;;
26594;SDS011;14238;49.496;8.154;2022-07-26T05:37:23;2.30;;;2.00;;
26594;SDS011;14238;49.496;8.154;2022-07-26T05:39:49;2.83;;;1.80;;
26594;SDS011;14238;49.496;8.154;2022-07-26T05:42:14;2.37;;;2.03;;
26594;SDS011;14238;49.496;8.154;2022-07-26T05:44:40;5.03;;;2.47;;
26594;SDS011;14238;49.496;8.154;2022-07-26T05:47:05;2.00;;;1.77;;
26594;SDS011;14238;49.496;8.154;2022-07-26T05:49:31;4.47;;;2.07;;
26594;SDS011;14238;49.496;8.154;2022-07-26T05:51:57;3.47;;;2.20;;
26594;SDS011;14238;49.496;8.154;2022-07-26T05:54:23;1.83;;;1.73;;
26594;SDS011;14238;49.496;8.154;2022-07-26T05:56:48;2.00;;;1.90;;
26594;SDS011;14238;49.496;8.154;2022-07-26T05:59:14;5.43;;;2.23;;
26594;SDS011;14238;49.496;8.154;2022-07-26T06:01:39;2.60;;;2.40;;
26594;SDS011;14238;49.496;8.154;2022-07-26T06:04:05;2.20;;;2.00;;
26594;SDS011;14238;49.496;8.154;2022-07-26T06:06:30;2.27;;;1.80;;
26594;SDS011;14238;49.496;8.154;2022-07-26T06:08:56;3.03;;;1.70;;
26594;SDS011;14238;49.496;8.154;2022-07-26T06:11:21;3.03;;;1.80;;
26594;SDS011;14238;49.496;8.154;2022-07-26T06:13:47;3.00;;;1.83;;
26594;SDS011;14238;49.496;8.154;2022-07-26T06:16:13;1.93;;;1.73;;
26594;SDS011;14238;49.496;8.154;2022-07-26T06:18:38;2.03;;;1.93;;
26594;SDS011;14238;49.496;8.154;2022-07-26T06:21:04;1.87;;;1.80;;
26594;SDS011;14238;49.496;8.154;2022-07-26T06:23:30;2.33;;;2.07;;
26594;SDS011;14238;49.496;8.154;2022-07-26T06:25:55;2.47;;;2.00;;
26594;SDS011;14238;49.496;8.154;2022-07-26T06:28:21;4.90;;;2.07;;
26594;SDS011;14238;49.496;8.154;2022-07-26T06:30:46;3.23;;;2.13;;
26594;SDS011;14238;49.496;8.154;2022-07-26T06:33:13;5.13;;;2.20;;
26594;SDS011;14238;49.496;8.154;2022-07-26T06:35:38;3.13;;;1.67;;
26594;SDS011;14238;49.496;8.154;2022-07-26T06:38:04;2.60;;;1.90;;
26594;SDS011;14238;49.496;8.154;2022-07-26T06:40:31;4.73;;;1.90;;
26594;SDS011;14238;49.496;8.154;2022-07-26T06:42:57;3.73;;;1.50;;
26594;SDS011;14238;49.496;8.154;2022-07-26T06:45:27;2.73;;;2.20;;
26594;SDS011;14238;49.496;8.154;2022-07-26T06:47:53;2.90;;;1.93;;
26594;SDS011;14238;49.496;8.154;2022-07-26T06:50:19;1.93;;;1.70;;
26594;SDS011;14238;49.496;8.154;2022-07-26T06:52:44;1.90;;;1.70;;
26594;SDS011;14238;49.496;8.154;2022-07-26T06:55:10;2.43;;;1.87;;
26594;SDS011;14238;49.496;8.154;2022-07-26T06:57:36;1.80;;;1.70;;
26594;SDS011;14238;49.496;8.154;2022-07-26T07:00:06;3.17;;;1.70;;
26594;SDS011;14238;49.496;8.154;2022-07-26T07:02:33;2.80;;;1.50;;
26594;SDS011;14238;49.496;8.154;2022-07-26T07:04:58;2.13;;;1.80;;
26594;SDS011;14238;49.496;8.154;2022-07-26T07:07:24;1.80;;;1.63;;
26594;SDS011;14238;49.496;8.154;2022-07-26T07:09:50;1.87;;;1.77;;
26594;SDS011;14238;49.496;8.154;2022-07-26T07:12:16;1.90;;;1.50;;
26594;SDS011;14238;49.496;8.154;2022-07-26T07:14:41;1.73;;;1.63;;
26594;SDS011;14238;49.496;8.154;2022-07-26T07:17:07;1.53;;;1.47;;
26594;SDS011;14238;49.496;8.154;2022-07-26T07:19:33;2.83;;;1.50;;
26594;SDS011;14238;49.496;8.154;2022-07-26T07:22:00;1.30;;;1.20;;
26594;SDS011;14238;49.496;8.154;2022-07-26T07:24:26;1.77;;;1.67;;
26594;SDS011;14238;49.496;8.154;2022-07-26T07:26:52;2.00;;;1.60;;
26594;SDS011;14238;49.496;8.154;2022-07-26T07:29:18;1.73;;;1.30;;
26594;SDS011;14238;49.496;8.154;2022-07-26T07:31:44;1.70;;;1.40;;
26594;SDS011;14238;49.496;8.154;2022-07-26T07:34:11;1.37;;;1.37;;
26594;SDS011;14238;49.496;8.154;2022-07-26T07:36:42;2.10;;;1.37;;
26594;SDS011;14238;49.496;8.154;2022-07-26T07:39:08;1.40;;;1.30;;
26594;SDS011;14238;49.496;8.154;2022-07-26T07:41:33;1.20;;;1.10;;
26594;SDS011;14238;49.496;8.154;2022-07-26T07:44:02;2.43;;;1.70;;
26594;SDS011;14238;49.496;8.154;2022-07-26T07:46:28;1.97;;;1.47;;
26594;SDS011;14238;49.496;8.154;2022-07-26T07:48:53;2.07;;;1.30;;
26594;SDS011;14238;49.496;8.154;2022-07-26T07:51:19;1.70;;;1.60;;
26594;SDS011;14238;49.496;8.154;2022-07-26T07:53:45;2.73;;;1.70;;
26594;SDS011;14238;49.496;8.154;2022-07-26T07:56:11;2.23;;;1.67;;
26594;SDS011;14238;49.496;8.154;2022-07-26T07:58:36;1.60;;;1.37;;
26594;SDS011;14238;49.496;8.154;2022-07-26T08:01:02;1.77;;;1.40;;
26594;SDS011;14238;49.496;8.154;2022-07-26T08:03:27;2.00;;;1.40;;
26594;SDS011;14238;49.496;8.154;2022-07-26T08:05:53;1.90;;;1.70;;
26594;SDS011;14238;49.496;8.154;2022-07-26T08:08:19;2.00;;;1.20;;
26594;SDS011;14238;49.496;8.154;2022-07-26T08:10:44;1.33;;;1.33;;
26594;SDS011;14238;49.496;8.154;2022-07-26T08:13:10;2.60;;;1.57;;
26594;SDS011;14238;49.496;8.154;2022-07-26T08:15:35;1.97;;;1.40;;
26594;SDS011;14238;49.496;8.154;2022-07-26T08:18:01;1.43;;;1.30;;
26594;SDS011;14238;49.496;8.154;2022-07-26T08:20:26;2.00;;;1.30;;
26594;SDS011;14238;49.496;8.154;2022-07-26T08:22:52;3.50;;;1.37;;
26594;SDS011;14238;49.496;8.154;2022-07-26T08:25:18;1.20;;;1.10;;
26594;SDS011;14238;49.496;8.154;2022-07-26T08:27:44;1.27;;;1.17;;
26594;SDS011;14238;49.496;8.154;2022-07-26T08:30:09;2.00;;;1.50;;
26594;SDS011;14238;49.496;8.154;2022-07-26T08:32:35;1.13;;;1.13;;
26594;SDS011;14238;49.496;8.154;2022-07-26T08:35:01;1.20;;;1.20;;
26594;SDS011;14238;49.496;8.154;2022-07-26T08:37:26;1.33;;;1.20;;
26594;SDS011;14238;49.496;8.154;2022-07-26T08:39:52;2.00;;;1.27;;
26594;SDS011;14238;49.496;8.154;2022-07-26T08:42:18;1.47;;;1.20;;
26594;SDS011;14238;49.496;8.154;2022-07-26T08:44:48;3.30;;;1.57;;
26594;SDS011;14238;49.496;8.154;2022-07-26T08:47:16;1.20;;;1.20;;
26594;SDS011;14238;49.496;8.154;2022-07-26T08:49:43;2.23;;;1.43;;
26594;SDS011;14238;49.496;8.154;2022-07-26T08:52:10;1.83;;;1.50;;
26594;SDS011;14238;49.496;8.154;2022-07-26T08:54:47;2.80;;;1.30;;
26594;SDS011;14238;49.496;8.154;2022-07-26T08:57:14;2.10;;;1.43;;
26594;SDS011;14238;49.496;8.154;2022-07-26T08:59:40;1.53;;;1.30;;
26594;SDS011;14238;49.496;8.154;2022-07-26T09:02:07;1.50;;;1.40;;
26594;SDS011;14238;49.496;8.154;2022-07-26T09:04:36;1.33;;;1.23;;
26594;SDS011;14238;49.496;8.154;2022-07-26T09:07:12;4.63;;;1.70;;
26594;SDS011;14238;49.496;8.154;2022-07-26T09:12:25;3.23;;;1.47;;
26594;SDS011;14238;49.496;8.154;2022-07-26T09:14:53;1.53;;;1.43;;
26594;SDS011;14238;49.496;8.154;2022-07-26T09:17:20;2.63;;;1.30;;
26594;SDS011;14238;49.496;8.154;2022-07-26T09:20:01;3.13;;;1.43;;
26594;SDS011;14238;49.496;8.154;2022-07-26T09:22:31;1.33;;;1.27;;
26594;SDS011;14238;49.496;8.154;2022-07-26T09:24:57;1.10;;;1.10;;
26594;SDS011;14238;49.496;8.154;2022-07-26T09:27:22;1.97;;;1.33;;
26594;SDS011;14238;49.496;8.154;2022-07-26T09:29:51;1.20;;;1.17;;
26594;SDS011;14238;49.496;8.154;2022-07-26T09:34:51;1.20;;;1.20;;
26594;SDS011;14238;49.496;8.154;2022-07-26T09:37:36;1.30;;;1.20;;
26594;SDS011;14238;49.496;8.154;2022-07-26T09:40:05;1.47;;;1.37;;
26594;SDS011;14238;49.496;8.154;2022-07-26T09:42:32;1.20;;;1.20;;
26594;SDS011;14238;49.496;8.154;2022-07-26T09:44:59;4.07;;;1.60;;
26594;SDS011;14238;49.496;8.154;2022-07-26T09:47:34;1.37;;;1.30;;
26594;SDS011;14238;49.496;8.154;2022-07-26T09:50:12;1.40;;;1.40;;
26594;SDS011;14238;49.496;8.154;2022-07-26T09:55:28;1.20;;;0.90;;
26594;SDS011;14238;49.496;8.154;2022-07-26T09:57:55;1.30;;;1.20;;
26594;SDS011;14238;49.496;8.154;2022-07-26T10:00:21;1.20;;;1.10;;
26594;SDS011;14238;49.496;8.154;2022-07-26T10:02:49;1.80;;;0.90;;
26594;SDS011;14238;49.496;8.154;2022-07-26T10:05:16;0.90;;;0.90;;
26594;SDS011;14238;49.496;8.154;2022-07-26T10:07:42;1.50;;;1.40;;
26594;SDS011;14238;49.496;8.154;2022-07-26T10:10:09;1.07;;;0.97;;
26594;SDS011;14238;49.496;8.154;2022-07-26T10:12:39;1.20;;;1.13;;
26594;SDS011;14238;49.496;8.154;2022-07-26T10:17:57;1.80;;;1.10;;
26594;SDS011;14238;49.496;8.154;2022-07-26T10:23:50;3.23;;;1.10;;
26594;SDS011;14238;49.496;8.154;2022-07-26T10:26:05;2.30;;;1.30;;
26594;SDS011;14238;49.496;8.154;2022-07-26T10:28:33;1.43;;;1.30;;
26594;SDS011;14238;49.496;8.154;2022-07-26T10:33:46;3.57;;;1.23;;
26594;SDS011;14238;49.496;8.154;2022-07-26T10:36:22;1.10;;;1.10;;
26594;SDS011;14238;49.496;8.154;2022-07-26T10:38:57;2.73;;;1.30;;
26594;SDS011;14238;49.496;8.154;2022-07-26T10:44:13;1.47;;;1.20;;
26594;SDS011;14238;49.496;8.154;2022-07-26T10:46:59;1.30;;;1.20;;
26594;SDS011;14238;49.496;8.154;2022-07-26T10:52:23;1.40;;;1.30;;
26594;SDS011;14238;49.496;8.154;2022-07-26T11:00:00;2.40;;;1.13;;
26594;SDS011;14238;49.496;8.154;2022-07-26T11:02:28;1.37;;;1.30;;
26594;SDS011;14238;49.496;8.154;2022-07-26T11:05:00;1.20;;;1.20;;
26594;SDS011;14238;49.496;8.154;2022-07-26T11:08:12;1.57;;;1.10;;
26594;SDS011;14238;49.496;8.154;2022-07-26T11:10:36;1.47;;;1.30;;
26594;SDS011;14238;49.496;8.154;2022-07-26T11:13:05;1.50;;;1.40;;
26594;SDS011;14238;49.496;8.154;2022-07-26T11:15:33;1.23;;;1.23;;
26594;SDS011;14238;49.496;8.154;2022-07-26T11:18:11;3.80;;;1.70;;
26594;SDS011;14238;49.496;8.154;2022-07-26T11:20:40;2.00;;;1.70;;
26594;SDS011;14238;49.496;8.154;2022-07-26T11:28:44;1.47;;;1.37;;
26594;SDS011;14238;49.496;8.154;2022-07-26T11:31:21;1.50;;;1.40;;
26594;SDS011;14238;49.496;8.154;2022-07-26T11:33:50;1.33;;;1.23;;
26594;SDS011;14238;49.496;8.154;2022-07-26T11:36:17;3.87;;;2.33;;
26594;SDS011;14238;49.496;8.154;2022-07-26T11:38:54;1.37;;;1.20;;
26594;SDS011;14238;49.496;8.154;2022-07-26T11:41:20;1.63;;;1.53;;
26594;SDS011;14238;49.496;8.154;2022-07-26T11:43:51;1.07;;;1.07;;
26594;SDS011;14238;49.496;8.154;2022-07-26T11:46:17;3.03;;;1.30;;
26594;SDS011;14238;49.496;8.154;2022-07-26T11:48:47;1.47;;;1.37;;
26594;SDS011;14238;49.496;8.154;2022-07-26T11:51:15;2.00;;;1.90;;
26594;SDS011;14238;49.496;8.154;2022-07-26T11:53:45;1.13;;;1.13;;
26594;SDS011;14238;49.496;8.154;2022-07-26T11:56:18;2.20;;;1.40;;
26594;SDS011;14238;49.496;8.154;2022-07-26T11:58:47;1.80;;;1.70;;
26594;SDS011;14238;49.496;8.154;2022-07-26T12:01:15;2.10;;;1.30;;
26594;SDS011;14238;49.496;8.154;2022-07-26T12:03:43;1.83;;;1.50;;
26594;SDS011;14238;49.496;8.154;2022-07-26T12:06:11;3.23;;;1.60;;
26594;SDS011;14238;49.496;8.154;2022-07-26T12:08:43;1.50;;;1.40;;
26594;SDS011;14238;49.496;8.154;2022-07-26T12:11:17;2.37;;;1.40;;
26594;SDS011;14238;49.496;8.154;2022-07-26T12:13:54;1.17;;;1.07;;
26594;SDS011;14238;49.496;8.154;2022-07-26T12:16:38;1.27;;;1.20;;
26594;SDS011;14238;49.496;8.154;2022-07-26T12:19:09;1.73;;;1.10;;
26594;SDS011;14238;49.496;8.154;2022-07-26T12:21:42;2.30;;;1.50;;
26594;SDS011;14238;49.496;8.154;2022-07-26T12:24:17;1.30;;;1.20;;
26594;SDS011;14238;49.496;8.154;2022-07-26T12:27:04;2.43;;;1.87;;
26594;SDS011;14238;49.496;8.154;2022-07-26T12:29:45;2.00;;;1.60;;
26594;SDS011;14238;49.496;8.154;2022-07-26T12:32:29;1.50;;;1.40;;
26594;SDS011;14238;49.496;8.154;2022-07-26T12:35:03;3.73;;;1.50;;
26594;SDS011;14238;49.496;8.154;2022-07-26T12:37:31;1.67;;;1.53;;
26594;SDS011;14238;49.496;8.154;2022-07-26T12:40:06;1.27;;;0.97;;
26594;SDS011;14238;49.496;8.154;2022-07-26T12:42:37;1.30;;;1.10;;
26594;SDS011;14238;49.496;8.154;2022-07-26T12:45:06;1.77;;;1.30;;
26594;SDS011;14238;49.496;8.154;2022-07-26T12:47:34;2.17;;;1.60;;
26594;SDS011;14238;49.496;8.154;2022-07-26T12:50:00;1.00;;;1.00;;
26594;SDS011;14238;49.496;8.154;2022-07-26T12:52:27;1.47;;;1.20;;
26594;SDS011;14238;49.496;8.154;2022-07-26T12:54:53;1.17;;;1.10;;
26594;SDS011;14238;49.496;8.154;2022-07-26T12:57:19;1.30;;;1.20;;
26594;SDS011;14238;49.496;8.154;2022-07-26T12:59:46;3.53;;;1.70;;
26594;SDS011;14238;49.496;8.154;2022-07-26T13:02:12;1.40;;;1.30;;
26594;SDS011;14238;49.496;8.154;2022-07-26T13:04:38;1.67;;;1.37;;
26594;SDS011;14238;49.496;8.154;2022-07-26T13:07:04;1.10;;;1.00;;
26594;SDS011;14238;49.496;8.154;2022-07-26T13:09:31;1.93;;;1.43;;
26594;SDS011;14238;49.496;8.154;2022-07-26T13:11:57;2.03;;;1.40;;
26594;SDS011;14238;49.496;8.154;2022-07-26T13:14:24;2.40;;;1.63;;
26594;SDS011;14238;49.496;8.154;2022-07-26T13:16:50;1.87;;;1.67;;
26594;SDS011;14238;49.496;8.154;2022-07-26T13:19:15;1.93;;;1.30;;
26594;SDS011;14238;49.496;8.154;2022-07-26T13:21:41;2.33;;;1.30;;
26594;SDS011;14238;49.496;8.154;2022-07-26T13:24:07;1.63;;;1.53;;
26594;SDS011;14238;49.496;8.154;2022-07-26T13:26:33;1.50;;;1.40;;
26594;SDS011;14238;49.496;8.154;2022-07-26T13:28:58;1.93;;;1.40;;
26594;SDS011;14238;49.496;8.154;2022-07-26T13:31:24;1.63;;;1.53;;
26594;SDS011;14238;49.496;8.154;2022-07-26T13:33:49;1.53;;;1.50;;
26594;SDS011;14238;49.496;8.154;2022-07-26T13:36:15;1.77;;;1.30;;
26594;SDS011;14238;49.496;8.154;2022-07-26T13:38:40;1.40;;;1.10;;
26594;SDS011;14238;49.496;8.154;2022-07-26T13:41:06;1.73;;;1.37;;
26594;SDS011;14238;49.496;8.154;2022-07-26T13:43:33;1.43;;;1.40;;
26594;SDS011;14238;49.496;8.154;2022-07-26T13:45:59;1.90;;;1.60;;
26594;SDS011;14238;49.496;8.154;2022-07-26T13:48:25;1.50;;;1.40;;
26594;SDS011;14238;49.496;8.154;2022-07-26T13:50:52;1.40;;;1.40;;
26594;SDS011;14238;49.496;8.154;2022-07-26T13:53:18;2.07;;;1.90;;
26594;SDS011;14238;49.496;8.154;2022-07-26T13:55:43;1.53;;;1.43;;
26594;SDS011;14238;49.496;8.154;2022-07-26T13:58:09;1.40;;;1.40;;
26594;SDS011;14238;49.496;8.154;2022-07-26T14:00:35;1.20;;;1.10;;
26594;SDS011;14238;49.496;8.154;2022-07-26T14:03:00;1.30;;;1.20;;
26594;SDS011;14238;49.496;8.154;2022-07-26T14:05:26;1.00;;;1.00;;
26594;SDS011;14238;49.496;8.154;2022-07-26T14:07:52;1.80;;;1.63;;
26594;SDS011;14238;49.496;8.154;2022-07-26T14:10:19;3.83;;;1.20;;
26594;SDS011;14238;49.496;8.154;2022-07-26T14:12:45;1.37;;;1.27;;
26594;SDS011;14238;49.496;8.154;2022-07-26T14:15:11;2.20;;;1.50;;
26594;SDS011;14238;49.496;8.154;2022-07-26T14:17:38;1.80;;;1.37;;
26594;SDS011;14238;49.496;8.154;2022-07-26T14:20:04;1.03;;;1.00;;
26594;SDS011;14238;49.496;8.154;2022-07-26T14:22:30;1.00;;;1.00;;
26594;SDS011;14238;49.496;8.154;2022-07-26T14:24:55;1.20;;;1.20;;
26594;SDS011;14238;49.496;8.154;2022-07-26T14:27:21;1.70;;;1.60;;
26594;SDS011;14238;49.496;8.154;2022-07-26T14:29:47;1.27;;;1.27;;
26594;SDS011;14238;49.496;8.154;2022-07-26T14:32:13;1.40;;;1.40;;
26594;SDS011;14238;49.496;8.154;2022-07-26T14:34:39;1.90;;;1.67;;
26594;SDS011;14238;49.496;8.154;2022-07-26T14:37:05;1.47;;;1.33;;
26594;SDS011;14238;49.496;8.154;2022-07-26T14:39:31;1.10;;;1.00;;
26594;SDS011;14238;49.496;8.154;2022-07-26T14:41:57;2.17;;;1.30;;
26594;SDS011;14238;49.496;8.154;2022-07-26T14:44:24;1.30;;;1.20;;
26594;SDS011;14238;49.496;8.154;2022-07-26T14:46:50;2.70;;;1.30;;
26594;SDS011;14238;49.496;8.154;2022-07-26T14:49:16;1.73;;;1.63;;
26594;SDS011;14238;49.496;8.154;2022-07-26T14:51:42;1.43;;;1.33;;
26594;SDS011;14238;49.496;8.154;2022-07-26T14:54:07;1.40;;;1.30;;
26594;SDS011;14238;49.496;8.154;2022-07-26T14:56:33;2.73;;;1.37;;
26594;SDS011;14238;49.496;8.154;2022-07-26T14:58:59;1.30;;;1.30;;
26594;SDS011;14238;49.496;8.154;2022-07-26T15:01:24;1.47;;;1.23;;
26594;SDS011;14238;49.496;8.154;2022-07-26T15:03:51;1.40;;;1.30;;
26594;SDS011;14238;49.496;8.154;2022-07-26T15:06:16;1.23;;;1.13;;
26594;SDS011;14238;49.496;8.154;2022-07-26T15:08:42;2.10;;;1.40;;
26594;SDS011;14238;49.496;8.154;2022-07-26T15:11:08;1.77;;;1.67;;
26594;SDS011;14238;49.496;8.154;2022-07-26T15:13:33;1.93;;;1.57;;
26594;SDS011;14238;49.496;8.154;2022-07-26T15:15:59;2.73;;;1.50;;
26594;SDS011;14238;49.496;8.154;2022-07-26T15:18:25;1.70;;;1.60;;
26594;SDS011;14238;49.496;8.154;2022-07-26T15:20:51;1.80;;;1.40;;